Time;durP1;ratioP1;P1;durP2;ratioP2;P2;SDS_P1;SDS_P2;PMS_P1;PMS_P2;Temp;Humidity;BMP_temperature;BMP_pressure;BME280_temperature;BME280_humidity;BME280_pressure;Samples;Min_cycle;Max_cycle;Signal;HPM_P1;HPM_P2
2023/07/08 00:00:12;;;;;;;2.57;2.20;;;23.10;74.80;;;;;;5060311;28;21082;-59
2023/07/08 00:02:40;;;;;;;1.73;1.47;;;23.10;74.80;;;;;;5063257;28;20471;-59
2023/07/08 00:05:09;;;;;;;1.60;1.50;;;23.20;75.00;;;;;;5061063;28;20838;-60
2023/07/08 00:07:36;;;;;;;1.83;1.67;;;23.20;75.00;;;;;;5056950;28;20457;-59
2023/07/08 00:10:06;;;;;;;2.03;1.57;;;23.20;75.00;;;;;;5056130;28;20461;-59
2023/07/08 00:12:32;;;;;;;2.33;1.90;;;23.10;74.80;;;;;;5059088;28;20461;-60
2023/07/08 00:14:59;;;;;;;3.13;2.63;;;23.10;74.80;;;;;;5059841;28;20461;-60
2023/07/08 00:17:26;;;;;;;1.97;1.60;;;23.20;75.00;;;;;;5060375;28;21026;-59
2023/07/08 00:19:54;;;;;;;1.90;1.67;;;23.10;74.80;;;;;;5064140;28;20464;-59
2023/07/08 00:22:24;;;;;;;1.90;1.50;;;23.20;75.00;;;;;;5069833;28;20476;-59
2023/07/08 00:24:52;;;;;;;1.70;1.60;;;23.20;75.00;;;;;;5063816;28;20454;-59
2023/07/08 00:27:18;;;;;;;2.30;2.10;;;23.10;74.90;;;;;;5060772;28;20488;-59
2023/07/08 00:29:45;;;;;;;2.03;1.83;;;23.10;74.90;;;;;;5062098;28;20954;-59
2023/07/08 00:32:14;;;;;;;2.13;1.90;;;23.20;75.10;;;;;;5061705;28;20455;-59
2023/07/08 00:34:41;;;;;;;2.10;1.57;;;23.10;75.00;;;;;;5060979;28;20461;-59
2023/07/08 00:37:12;;;;;;;2.90;1.73;;;23.10;75.00;;;;;;5058501;28;20456;-59
2023/07/08 00:39:39;;;;;;;2.30;2.10;;;23.10;75.00;;;;;;5063111;28;20496;-59
2023/07/08 00:42:14;;;;;;;1.93;1.73;;;23.10;75.00;;;;;;5059124;28;20556;-60
2023/07/08 00:44:42;;;;;;;1.40;1.30;;;23.20;75.10;;;;;;5059926;28;20460;-59
2023/07/08 00:47:11;;;;;;;1.70;1.57;;;23.10;75.00;;;;;;5061685;28;20492;-59
2023/07/08 00:49:41;;;;;;;2.00;1.80;;;23.10;75.00;;;;;;5059550;28;20469;-60
2023/07/08 00:52:30;;;;;;;2.07;1.77;;;23.10;75.00;;;;;;5061665;28;20464;-59
2023/07/08 00:55:01;;;;;;;1.50;1.33;;;23.10;75.10;;;;;;5052885;28;20674;-59
2023/07/08 00:57:32;;;;;;;1.87;1.77;;;23.10;75.00;;;;;;5058451;28;21089;-59
2023/07/08 01:00:03;;;;;;;2.10;1.70;;;23.10;75.00;;;;;;5058028;28;20456;-59
2023/07/08 01:02:31;;;;;;;1.93;1.63;;;23.10;75.10;;;;;;5059854;28;20824;-59
2023/07/08 01:05:05;;;;;;;1.77;1.67;;;23.10;75.00;;;;;;5054496;28;20461;-59
2023/07/08 01:07:35;;;;;;;2.30;1.90;;;23.10;75.00;;;;;;5054281;28;20473;-59
2023/07/08 01:10:05;;;;;;;2.10;1.80;;;23.10;75.10;;;;;;5055279;28;20456;-59
2023/07/08 01:12:36;;;;;;;1.93;1.70;;;23.10;75.10;;;;;;5057327;28;20889;-59
2023/07/08 01:15:05;;;;;;;2.37;1.60;;;23.10;75.10;;;;;;5053362;28;20484;-60
2023/07/08 01:17:32;;;;;;;2.13;1.93;;;23.10;75.10;;;;;;5060436;28;20461;-59
2023/07/08 01:20:00;;;;;;;1.90;1.73;;;23.10;75.10;;;;;;5059475;28;20549;-59
2023/07/08 01:22:31;;;;;;;3.00;2.03;;;23.10;75.20;;;;;;5056798;28;20462;-60
2023/07/08 01:25:02;;;;;;;3.40;2.00;;;23.10;75.20;;;;;;5059406;28;20461;-60
2023/07/08 01:27:31;;;;;;;1.77;1.67;;;23.10;75.20;;;;;;5059931;28;20475;-60
2023/07/08 01:29:58;;;;;;;1.87;1.67;;;23.10;75.20;;;;;;5060113;28;20507;-60
2023/07/08 01:32:25;;;;;;;1.47;1.37;;;23.10;75.10;;;;;;5054671;28;20467;-59
2023/07/08 01:35:00;;;;;;;1.60;1.40;;;23.10;75.20;;;;;;5063557;28;20484;-59
2023/07/08 01:37:32;;;;;;;1.40;1.30;;;23.10;75.20;;;;;;5062537;28;20460;-59
2023/07/08 01:39:59;;;;;;;2.10;1.90;;;23.10;75.20;;;;;;5060347;28;20460;-60
2023/07/08 01:42:25;;;;;;;1.70;1.60;;;23.10;75.20;;;;;;5060385;28;20457;-59
2023/07/08 01:44:52;;;;;;;2.00;1.90;;;23.10;75.20;;;;;;5065131;28;20868;-59
2023/07/08 01:47:23;;;;;;;2.27;1.80;;;23.10;75.20;;;;;;5059121;28;20509;-59
2023/07/08 01:49:49;;;;;;;2.10;1.90;;;23.10;75.20;;;;;;5060950;28;20558;-59
2023/07/08 01:52:19;;;;;;;1.90;1.60;;;23.10;75.30;;;;;;5062434;28;20826;-59
2023/07/08 01:54:56;;;;;;;2.00;1.80;;;23.10;75.20;;;;;;5063758;28;20551;-60
2023/07/08 01:57:22;;;;;;;2.43;2.20;;;23.10;75.30;;;;;;5070595;28;21070;-60
2023/07/08 01:59:50;;;;;;;1.83;1.73;;;23.10;75.40;;;;;;5072546;28;20448;-60
2023/07/08 02:02:16;;;;;;;1.50;1.40;;;23.10;75.30;;;;;;5073452;28;20573;-59
2023/07/08 02:04:43;;;;;;;2.27;1.97;;;23.10;75.30;;;;;;5069731;28;20538;-60
2023/07/08 02:07:10;;;;;;;2.10;1.87;;;23.10;75.30;;;;;;5062239;28;21025;-59
2023/07/08 02:09:36;;;;;;;1.80;1.70;;;23.10;75.30;;;;;;5064039;28;20456;-59
2023/07/08 02:12:05;;;;;;;1.97;1.77;;;23.00;75.20;;;;;;5064532;28;20461;-60
2023/07/08 02:14:32;;;;;;;1.80;1.50;;;23.10;75.30;;;;;;5063971;28;20460;-60
2023/07/08 02:16:59;;;;;;;1.80;1.70;;;23.10;75.30;;;;;;5059600;28;20471;-60
2023/07/08 02:19:27;;;;;;;4.63;2.07;;;23.10;75.30;;;;;;5064710;28;21015;-59
2023/07/08 02:21:54;;;;;;;1.57;1.47;;;23.10;75.40;;;;;;5058526;28;20718;-60
2023/07/08 02:24:22;;;;;;;2.67;1.80;;;23.10;75.40;;;;;;5058719;28;20981;-59
2023/07/08 02:26:49;;;;;;;3.43;1.80;;;23.10;75.30;;;;;;5064868;28;20491;-59
2023/07/08 02:29:17;;;;;;;1.93;1.50;;;23.10;75.40;;;;;;5054616;28;20807;-59
2023/07/08 02:31:44;;;;;;;1.63;1.53;;;23.00;75.30;;;;;;5056394;28;20460;-59
2023/07/08 02:34:11;;;;;;;1.90;1.70;;;23.10;75.40;;;;;;5054167;28;20555;-60
2023/07/08 02:36:38;;;;;;;1.70;1.60;;;23.00;75.30;;;;;;5056653;28;20479;-59
2023/07/08 02:39:05;;;;;;;1.70;1.47;;;23.10;75.40;;;;;;5058917;28;20583;-59
2023/07/08 02:41:32;;;;;;;2.00;1.80;;;23.10;75.40;;;;;;5055815;28;20455;-59
2023/07/08 02:43:59;;;;;;;2.17;1.90;;;23.00;75.30;;;;;;5056570;28;20518;-59
2023/07/08 02:46:27;;;;;;;1.80;1.50;;;23.10;75.40;;;;;;5056661;28;20479;-60
2023/07/08 02:48:53;;;;;;;1.60;1.50;;;23.10;75.50;;;;;;5060226;28;20457;-59
2023/07/08 02:51:20;;;;;;;1.73;1.50;;;23.00;75.40;;;;;;5060370;28;20453;-60
2023/07/08 02:53:51;;;;;;;1.40;1.30;;;23.00;75.40;;;;;;5064555;28;20456;-59
2023/07/08 02:56:17;;;;;;;2.43;1.50;;;23.00;75.40;;;;;;5055216;28;20469;-59
2023/07/08 02:58:44;;;;;;;1.63;1.47;;;23.00;75.40;;;;;;5057146;28;20468;-59
2023/07/08 03:01:11;;;;;;;1.50;1.30;;;23.00;75.40;;;;;;5060022;28;20480;-60
2023/07/08 03:03:39;;;;;;;1.70;1.60;;;23.10;75.60;;;;;;5056929;28;20469;-60
2023/07/08 03:06:06;;;;;;;1.70;1.40;;;23.00;75.40;;;;;;5058091;28;20463;-59
2023/07/08 03:08:33;;;;;;;1.43;1.33;;;23.00;75.40;;;;;;5064309;28;20885;-59
2023/07/08 03:11:01;;;;;;;1.77;1.47;;;23.00;75.40;;;;;;5065006;28;20453;-59
2023/07/08 03:13:29;;;;;;;1.70;1.60;;;23.10;75.60;;;;;;5057758;28;20464;-59
2023/07/08 03:15:55;;;;;;;1.63;1.47;;;23.00;75.40;;;;;;5060499;28;20952;-59
2023/07/08 03:18:23;;;;;;;1.50;1.40;;;23.00;75.40;;;;;;5066154;28;20801;-60
2023/07/08 03:20:51;;;;;;;1.57;1.47;;;23.00;75.40;;;;;;5063269;28;20913;-59
2023/07/08 03:23:18;;;;;;;1.77;1.57;;;23.00;75.40;;;;;;5063335;28;20463;-59
2023/07/08 03:25:45;;;;;;;1.70;1.60;;;23.00;75.60;;;;;;5064905;28;20467;-59
2023/07/08 03:28:14;;;;;;;2.27;2.07;;;23.00;75.60;;;;;;5062786;28;20797;-59
2023/07/08 03:30:41;;;;;;;1.77;1.67;;;23.00;75.50;;;;;;5065033;28;20468;-59
2023/07/08 03:33:08;;;;;;;2.00;1.40;;;23.00;75.40;;;;;;5066033;28;20486;-59
2023/07/08 03:35:35;;;;;;;1.60;1.50;;;23.00;75.50;;;;;;5069181;28;20477;-59
2023/07/08 03:38:03;;;;;;;1.73;1.50;;;23.00;75.60;;;;;;5066450;28;20464;-59
2023/07/08 03:40:30;;;;;;;2.00;1.90;;;23.00;76.00;;;;;;5065886;28;20464;-59
2023/07/08 03:42:57;;;;;;;1.47;1.37;;;23.00;75.40;;;;;;5066714;28;20453;-59
2023/07/08 03:45:24;;;;;;;1.97;1.77;;;23.00;75.60;;;;;;5063485;28;20460;-59
2023/07/08 03:47:51;;;;;;;1.87;1.60;;;23.00;75.60;;;;;;5067620;28;20488;-59
2023/07/08 03:50:20;;;;;;;1.70;1.60;;;23.00;75.50;;;;;;5057194;28;20473;-59
2023/07/08 03:52:47;;;;;;;1.57;1.47;;;23.00;75.60;;;;;;5062498;28;20465;-59
2023/07/08 03:55:15;;;;;;;1.30;1.20;;;23.00;75.60;;;;;;5062165;28;20456;-59
2023/07/08 03:57:42;;;;;;;1.87;1.57;;;23.00;75.60;;;;;;5060001;28;20465;-59
2023/07/08 04:00:11;;;;;;;2.00;1.63;;;23.00;75.60;;;;;;5055385;28;20465;-60
2023/07/08 04:02:38;;;;;;;2.00;1.80;;;23.00;75.60;;;;;;5058891;28;20594;-59
2023/07/08 04:05:06;;;;;;;1.80;1.70;;;23.00;75.60;;;;;;5054874;28;20460;-60
2023/07/08 04:07:33;;;;;;;1.57;1.40;;;23.00;75.60;;;;;;5061204;28;20473;-59
2023/07/08 04:09:59;;;;;;;1.80;1.70;;;23.00;75.70;;;;;;5058846;28;20457;-59
2023/07/08 04:12:28;;;;;;;1.50;1.40;;;23.00;75.60;;;;;;5063131;28;20475;-59
2023/07/08 04:14:54;;;;;;;1.97;1.70;;;23.00;75.60;;;;;;5060287;28;20456;-59
2023/07/08 04:17:23;;;;;;;1.50;1.33;;;22.90;75.50;;;;;;5064750;28;20468;-59
2023/07/08 04:19:49;;;;;;;1.50;1.20;;;23.00;75.70;;;;;;5060487;28;20459;-59
2023/07/08 04:22:16;;;;;;;1.73;1.63;;;23.00;75.60;;;;;;5056252;28;20452;-59
2023/07/08 04:24:43;;;;;;;2.03;1.40;;;23.00;75.70;;;;;;5057259;28;20460;-59
2023/07/08 04:27:14;;;;;;;1.60;1.30;;;23.00;75.60;;;;;;5057500;28;20492;-59
2023/07/08 04:29:42;;;;;;;1.83;1.73;;;23.00;75.70;;;;;;5064281;28;20981;-59
2023/07/08 04:32:09;;;;;;;1.57;1.40;;;23.00;75.70;;;;;;5059565;28;20990;-59
2023/07/08 04:34:36;;;;;;;2.03;1.80;;;23.00;75.70;;;;;;5064627;28;20461;-59
2023/07/08 04:37:04;;;;;;;1.70;1.60;;;23.00;75.70;;;;;;5063133;28;20879;-59
2023/07/08 04:39:31;;;;;;;1.63;1.53;;;23.00;75.70;;;;;;5062864;28;20548;-59
2023/07/08 04:41:57;;;;;;;2.17;1.40;;;22.90;75.60;;;;;;5059934;28;20468;-59
2023/07/08 04:44:24;;;;;;;1.67;1.57;;;23.00;75.70;;;;;;5055929;28;20465;-59
2023/07/08 04:46:56;;;;;;;1.83;1.70;;;23.00;76.50;;;;;;5059938;28;20485;-59
2023/07/08 04:49:24;;;;;;;1.73;1.63;;;23.00;75.70;;;;;;5060271;28;21082;-60
2023/07/08 04:51:51;;;;;;;1.40;1.30;;;23.00;75.70;;;;;;5057019;28;20456;-59
2023/07/08 04:54:18;;;;;;;1.80;1.70;;;23.00;75.70;;;;;;5060742;28;20952;-59
2023/07/08 04:56:48;;;;;;;1.70;1.60;;;22.90;75.60;;;;;;5061423;28;20465;-60
2023/07/08 04:59:17;;;;;;;1.50;1.40;;;23.00;75.70;;;;;;5059007;28;20499;-59
2023/07/08 05:01:44;;;;;;;1.70;1.60;;;23.00;75.80;;;;;;5062906;28;20486;-59
2023/07/08 05:04:15;;;;;;;2.00;1.80;;;23.00;75.80;;;;;;5060064;28;20464;-59
2023/07/08 05:06:43;;;;;;;1.70;1.60;;;23.00;75.80;;;;;;5055243;28;20476;-59
2023/07/08 05:09:10;;;;;;;1.40;1.30;;;23.00;75.70;;;;;;5057406;28;20836;-59
2023/07/08 05:11:37;;;;;;;1.53;1.40;;;23.00;76.50;;;;;;5055343;28;20986;-60
2023/07/08 05:14:05;;;;;;;2.27;1.83;;;23.00;75.80;;;;;;5056722;28;20461;-59
2023/07/08 05:16:35;;;;;;;1.97;1.63;;;23.00;75.80;;;;;;5058166;28;20472;-59
2023/07/08 05:19:01;;;;;;;1.63;1.40;;;23.00;75.80;;;;;;5067795;28;20465;-59
2023/07/08 05:21:33;;;;;;;1.50;1.40;;;22.90;75.70;;;;;;5054811;28;20452;-59
2023/07/08 05:24:00;;;;;;;2.17;1.60;;;23.00;75.80;;;;;;5061500;28;20456;-60
2023/07/08 05:26:26;;;;;;;1.57;1.23;;;23.00;75.90;;;;;;5063509;28;20468;-60
2023/07/08 05:28:53;;;;;;;2.87;1.50;;;23.00;76.20;;;;;;5061335;28;20477;-60
2023/07/08 05:31:20;;;;;;;1.80;1.50;;;22.90;76.20;;;;;;5061653;28;20532;-60
2023/07/08 05:33:46;;;;;;;1.53;1.43;;;22.90;76.30;;;;;;5060751;28;20937;-59
2023/07/08 05:36:13;;;;;;;1.50;1.40;;;22.90;76.20;;;;;;5064486;28;20484;-59
2023/07/08 05:38:41;;;;;;;1.67;1.40;;;22.90;76.30;;;;;;5064331;28;20898;-59
2023/07/08 05:41:08;;;;;;;1.40;1.27;;;22.90;76.30;;;;;;5065443;28;20464;-59
2023/07/08 05:43:35;;;;;;;1.27;1.17;;;22.90;76.20;;;;;;5062371;28;20523;-59
2023/07/08 05:46:02;;;;;;;1.50;1.30;;;22.90;76.30;;;;;;5063860;28;20983;-60
2023/07/08 05:48:29;;;;;;;1.70;1.50;;;22.90;76.30;;;;;;5061456;28;20569;-59
2023/07/08 05:50:56;;;;;;;1.53;1.43;;;22.90;76.30;;;;;;5055477;28;20466;-59
2023/07/08 05:53:23;;;;;;;2.13;1.70;;;22.90;76.40;;;;;;5063257;28;20460;-59
2023/07/08 05:55:51;;;;;;;1.60;1.50;;;22.90;76.50;;;;;;5061694;28;20461;-59
2023/07/08 05:58:18;;;;;;;1.97;1.77;;;22.90;76.40;;;;;;5053461;28;20472;-59
2023/07/08 06:00:45;;;;;;;1.43;1.33;;;22.90;76.40;;;;;;5057494;28;20464;-59
2023/07/08 06:03:12;;;;;;;1.50;1.40;;;22.90;76.40;;;;;;5055717;28;20464;-59
2023/07/08 06:05:39;;;;;;;1.80;1.70;;;22.90;76.50;;;;;;5058109;28;20465;-59
2023/07/08 06:08:08;;;;;;;2.17;1.60;;;22.90;76.50;;;;;;5058884;28;20481;-59
2023/07/08 06:10:35;;;;;;;1.30;1.20;;;22.90;76.40;;;;;;5056196;28;20531;-60
2023/07/08 06:13:03;;;;;;;1.40;1.30;;;22.90;76.50;;;;;;5055574;28;21031;-59
2023/07/08 06:15:29;;;;;;;1.97;1.77;;;22.90;76.50;;;;;;5055497;28;21280;-59
2023/07/08 06:18:00;;;;;;;1.37;1.27;;;22.90;76.50;;;;;;5055222;28;20494;-59
2023/07/08 06:20:27;;;;;;;1.83;1.50;;;22.90;76.60;;;;;;5060549;28;20690;-59
2023/07/08 06:22:54;;;;;;;1.70;1.60;;;22.90;76.50;;;;;;5059681;28;20471;-60
2023/07/08 06:25:20;;;;;;;1.47;1.27;;;22.90;76.60;;;;;;5056250;28;20464;-59
2023/07/08 06:27:47;;;;;;;2.03;1.70;;;22.90;76.70;;;;;;5056435;28;20478;-59
2023/07/08 06:30:15;;;;;;;1.93;1.80;;;22.90;76.70;;;;;;5056185;28;21062;-59
2023/07/08 06:32:42;;;;;;;1.83;1.53;;;22.90;76.70;;;;;;5056702;28;20475;-59
2023/07/08 06:35:09;;;;;;;1.40;1.30;;;22.90;76.70;;;;;;5053477;28;20483;-60
2023/07/08 06:37:36;;;;;;;1.70;1.60;;;22.90;76.70;;;;;;5053832;28;20982;-60
2023/07/08 06:40:03;;;;;;;1.63;1.20;;;22.90;76.70;;;;;;5058786;28;20461;-59
2023/07/08 06:42:30;;;;;;;1.50;1.40;;;22.90;76.70;;;;;;5057746;28;20574;-60
2023/07/08 06:44:57;;;;;;;2.07;1.33;;;22.90;76.70;;;;;;5053109;28;20574;-59
2023/07/08 06:47:25;;;;;;;1.47;1.37;;;22.90;76.70;;;;;;5058582;28;21000;-59
2023/07/08 06:49:51;;;;;;;1.67;1.50;;;22.80;77.40;;;;;;5073679;28;20484;-59
2023/07/08 06:52:18;;;;;;;1.80;1.60;;;22.90;76.70;;;;;;5064526;28;20460;-59
2023/07/08 06:54:45;;;;;;;2.17;1.60;;;22.90;76.80;;;;;;5063306;28;20475;-60
2023/07/08 06:57:11;;;;;;;1.73;1.63;;;22.80;76.70;;;;;;5062671;28;20963;-59
2023/07/08 06:59:38;;;;;;;1.40;1.30;;;22.90;76.80;;;;;;5062340;28;20448;-60
2023/07/08 07:02:05;;;;;;;1.43;1.33;;;22.90;77.60;;;;;;5069567;28;20464;-60
2023/07/08 07:04:33;;;;;;;1.50;1.40;;;22.90;76.90;;;;;;5062733;28;20841;-60
2023/07/08 07:07:00;;;;;;;1.63;1.53;;;22.90;76.80;;;;;;5058922;28;20465;-59
2023/07/08 07:09:27;;;;;;;1.23;1.13;;;22.90;76.90;;;;;;5065209;28;21272;-59
2023/07/08 07:11:54;;;;;;;1.60;1.50;;;22.90;76.80;;;;;;5062218;28;20485;-59
2023/07/08 07:14:20;;;;;;;2.17;1.97;;;22.90;76.80;;;;;;5055906;28;20538;-60
2023/07/08 07:16:48;;;;;;;2.03;1.77;;;22.90;76.80;;;;;;5061607;28;20469;-59
2023/07/08 07:19:14;;;;;;;4.13;1.40;;;22.90;76.90;;;;;;5058687;28;20506;-60
2023/07/08 07:21:42;;;;;;;2.43;1.40;;;22.90;76.90;;;;;;5062006;28;21214;-59
2023/07/08 07:24:09;;;;;;;1.53;1.43;;;22.90;76.80;;;;;;5066742;28;20456;-59
2023/07/08 07:26:36;;;;;;;2.40;1.43;;;22.90;76.80;;;;;;5068554;28;20464;-60
2023/07/08 07:29:03;;;;;;;1.50;1.33;;;22.90;76.80;;;;;;5065477;28;20712;-59
2023/07/08 07:31:32;;;;;;;1.53;1.40;;;22.90;76.80;;;;;;5065482;28;21125;-59
2023/07/08 07:33:59;;;;;;;1.53;1.43;;;22.90;77.60;;;;;;5067852;28;20484;-60
2023/07/08 07:36:26;;;;;;;1.90;1.63;;;22.90;76.80;;;;;;5071864;28;20483;-59
2023/07/08 07:38:54;;;;;;;1.90;1.50;;;22.90;76.80;;;;;;5067132;28;20471;-60
2023/07/08 07:41:21;;;;;;;1.90;1.37;;;22.90;76.90;;;;;;5068430;28;21565;-60
2023/07/08 07:43:47;;;;;;;1.53;1.43;;;22.90;76.90;;;;;;5066247;28;20472;-60
2023/07/08 07:46:14;;;;;;;1.47;1.30;;;22.90;76.90;;;;;;5067190;28;20457;-59
2023/07/08 07:48:42;;;;;;;1.30;1.07;;;22.90;76.80;;;;;;5068445;28;20492;-60
2023/07/08 07:51:10;;;;;;;1.40;1.30;;;22.90;77.00;;;;;;5061773;28;20488;-59
2023/07/08 07:53:37;;;;;;;1.50;1.40;;;22.90;77.00;;;;;;5063556;28;20574;-59
2023/07/08 07:56:06;;;;;;;1.63;1.53;;;22.90;76.90;;;;;;5064462;28;20456;-59
2023/07/08 07:58:33;;;;;;;1.67;1.57;;;22.90;77.00;;;;;;5060916;28;21003;-62
2023/07/08 08:01:00;;;;;;;1.97;1.50;;;22.90;77.00;;;;;;5062697;28;20545;-62
2023/07/08 08:03:27;;;;;;;1.40;1.23;;;22.90;77.00;;;;;;5062743;28;20464;-61
2023/07/08 08:05:54;;;;;;;1.60;1.50;;;22.90;77.20;;;;;;5064611;28;20465;-61
2023/07/08 08:08:22;;;;;;;2.00;1.80;;;23.00;77.10;;;;;;5059976;28;20477;-59
2023/07/08 08:10:49;;;;;;;3.93;1.47;;;23.00;77.30;;;;;;5061287;28;20461;-61
2023/07/08 08:13:17;;;;;;;2.60;1.50;;;23.00;77.30;;;;;;5059327;28;20475;-61
2023/07/08 08:15:43;;;;;;;1.70;1.30;;;23.00;77.40;;;;;;5059466;28;20461;-61
2023/07/08 08:18:10;;;;;;;2.70;1.33;;;23.00;77.40;;;;;;5057556;28;20836;-62
2023/07/08 08:20:37;;;;;;;3.30;1.93;;;23.00;77.40;;;;;;5062969;28;20460;-62
2023/07/08 08:23:03;;;;;;;2.20;2.00;;;22.90;77.30;;;;;;5063091;28;20468;-60
2023/07/08 08:25:30;;;;;;;2.67;2.30;;;23.00;77.50;;;;;;5063958;28;20470;-59
2023/07/08 08:27:57;;;;;;;2.30;2.10;;;22.90;77.40;;;;;;5064282;28;20471;-63
2023/07/08 08:30:25;;;;;;;3.13;2.77;;;23.00;77.60;;;;;;5058646;28;20453;-61
2023/07/08 08:32:51;;;;;;;3.00;2.80;;;23.00;77.60;;;;;;5059149;28;20936;-60
2023/07/08 08:35:18;;;;;;;6.33;2.63;;;23.00;77.60;;;;;;5059117;28;20495;-60
2023/07/08 08:37:45;;;;;;;2.43;2.23;;;22.90;77.50;;;;;;5057401;28;20822;-62
2023/07/08 08:40:15;;;;;;;5.63;3.00;;;23.00;77.60;;;;;;5060280;28;20493;-63
2023/07/08 08:42:46;;;;;;;2.97;2.67;;;22.90;77.50;;;;;;5059997;28;20555;-61
2023/07/08 08:45:18;;;;;;;2.80;2.60;;;23.00;77.60;;;;;;5057308;28;20906;-63
2023/07/08 08:47:50;;;;;;;3.60;2.70;;;23.00;77.60;;;;;;5061714;28;20584;-62
2023/07/08 08:50:28;;;;;;;3.40;2.97;;;23.00;77.60;;;;;;5058853;28;20506;-61
2023/07/08 08:52:56;;;;;;;3.40;3.10;;;23.00;77.80;;;;;;5066691;28;20958;-62
2023/07/08 08:55:24;;;;;;;3.57;2.50;;;23.00;77.60;;;;;;5064835;28;20448;-62
2023/07/08 08:58:00;;;;;;;2.80;2.50;;;23.00;77.60;;;;;;5055990;28;20461;-61
2023/07/08 09:00:32;;;;;;;4.10;3.70;;;23.00;77.80;;;;;;5061111;28;20462;-61
2023/07/08 09:03:05;;;;;;;4.13;3.40;;;23.00;77.80;;;;;;5070894;28;20452;-61
2023/07/08 09:05:32;;;;;;;6.57;3.00;;;23.00;77.60;;;;;;5061948;28;20848;-62
2023/07/08 09:08:06;;;;;;;2.73;2.53;;;23.00;77.60;;;;;;5061000;28;20453;-60
2023/07/08 09:10:45;;;;;;;4.90;3.10;;;23.00;77.60;;;;;;5063683;28;20459;-59
2023/07/08 09:13:19;;;;;;;4.10;3.00;;;23.00;77.60;;;;;;5063053;28;20824;-61
2023/07/08 09:15:45;;;;;;;3.33;3.03;;;23.00;77.60;;;;;;5060235;28;20510;-61
2023/07/08 09:18:21;;;;;;;4.60;3.20;;;23.00;77.70;;;;;;5064857;28;21077;-63
2023/07/08 09:20:48;;;;;;;3.37;3.07;;;23.00;77.80;;;;;;5065325;28;20469;-59
2023/07/08 09:23:21;;;;;;;3.37;3.07;;;23.00;77.90;;;;;;5064617;28;20456;-59
2023/07/08 09:25:54;;;;;;;3.60;3.30;;;23.10;78.00;;;;;;5065711;28;20968;-60
2023/07/08 09:28:21;;;;;;;4.07;2.37;;;23.10;78.00;;;;;;5061537;28;20477;-61
2023/07/08 09:30:53;;;;;;;3.67;3.20;;;23.10;78.20;;;;;;5059972;28;20456;-61
2023/07/08 09:33:21;;;;;;;5.80;3.43;;;23.10;78.00;;;;;;5068924;28;20464;-61
2023/07/08 09:35:49;;;;;;;3.03;2.53;;;23.10;78.00;;;;;;5063976;28;20483;-61
2023/07/08 09:38:17;;;;;;;5.47;3.03;;;23.10;78.10;;;;;;5059736;28;20460;-60
2023/07/08 09:40:48;;;;;;;3.90;3.40;;;23.10;78.20;;;;;;5063705;28;20466;-60
2023/07/08 09:43:25;;;;;;;3.63;2.87;;;23.10;78.20;;;;;;5064473;28;20465;-60
2023/07/08 09:45:56;;;;;;;5.73;3.87;;;23.10;78.20;;;;;;5061142;28;20489;-60
2023/07/08 09:48:25;;;;;;;5.33;3.37;;;23.10;78.10;;;;;;5067080;28;20844;-59
2023/07/08 09:50:54;;;;;;;3.43;3.13;;;23.10;78.30;;;;;;5062748;28;20467;-60
2023/07/08 09:53:20;;;;;;;3.73;3.40;;;23.10;78.50;;;;;;5068877;28;20458;-60
2023/07/08 09:55:48;;;;;;;4.67;3.83;;;23.10;78.50;;;;;;5066890;28;20451;-61
2023/07/08 09:58:19;;;;;;;3.30;3.00;;;23.10;78.50;;;;;;5060212;28;20948;-60
2023/07/08 10:00:52;;;;;;;8.03;3.73;;;23.10;78.70;;;;;;5058213;28;20469;-61
2023/07/08 10:03:23;;;;;;;4.10;3.70;;;23.10;78.70;;;;;;5059414;28;20452;-61
2023/07/08 10:05:56;;;;;;;3.83;3.30;;;23.10;78.50;;;;;;5059715;28;20628;-61
2023/07/08 10:08:24;;;;;;;5.70;4.03;;;23.10;78.70;;;;;;5062879;28;20508;-58
2023/07/08 10:10:59;;;;;;;4.03;3.10;;;23.10;78.90;;;;;;5059897;28;20446;-59
2023/07/08 10:13:35;;;;;;;4.50;3.60;;;23.20;78.80;;;;;;5061199;28;20556;-60
2023/07/08 10:16:13;;;;;;;6.40;3.93;;;23.20;78.80;;;;;;5060534;28;20468;-60
2023/07/08 10:18:40;;;;;;;5.80;3.80;;;23.20;78.70;;;;;;5057951;28;20456;-58
2023/07/08 10:21:14;;;;;;;4.70;4.20;;;23.20;79.00;;;;;;5055671;28;20453;-53
2023/07/08 10:23:48;;;;;;;4.10;3.10;;;23.20;79.00;;;;;;5060659;28;20819;-65
2023/07/08 10:26:24;;;;;;;4.33;3.90;;;23.20;78.90;;;;;;5064530;28;20969;-69
2023/07/08 10:29:09;;;;;;;3.90;3.50;;;23.20;78.90;;;;;;5063346;28;20482;-58
2023/07/08 10:31:43;;;;;;;3.80;3.50;;;23.20;78.90;;;;;;5059358;28;20469;-60
2023/07/08 10:34:25;;;;;;;3.60;3.30;;;23.20;79.00;;;;;;5061098;28;20475;-55
2023/07/08 10:37:00;;;;;;;3.53;3.23;;;23.20;79.00;;;;;;5066761;28;20476;-58
2023/07/08 10:39:46;;;;;;;3.83;3.53;;;23.20;79.20;;;;;;5064985;28;20503;-66
2023/07/08 10:42:25;;;;;;;4.53;4.13;;;23.20;79.00;;;;;;5065355;28;20959;-65
2023/07/08 10:45:03;;;;;;;4.00;3.60;;;23.20;79.00;;;;;;5060158;28;20467;-62
2023/07/08 10:47:43;;;;;;;6.00;3.33;;;23.20;79.10;;;;;;5063710;28;20487;-59
2023/07/08 10:50:27;;;;;;;4.33;3.43;;;23.20;79.00;;;;;;5065461;28;20475;-57
2023/07/08 10:53:04;;;;;;;3.93;3.53;;;23.20;79.10;;;;;;5065345;28;20465;-59
2023/07/08 10:55:44;;;;;;;3.97;3.57;;;23.20;79.10;;;;;;5068539;28;20460;-68
2023/07/08 10:58:44;;;;;;;3.93;3.30;;;23.20;79.10;;;;;;5064484;28;20467;-59
2023/07/08 11:01:17;;;;;;;3.47;3.17;;;23.30;79.20;;;;;;5057217;28;20814;-65
2023/07/08 11:04:18;;;;;;;4.90;4.33;;;23.30;79.20;;;;;;5068265;28;20468;-63
2023/07/08 11:06:50;;;;;;;3.73;3.33;;;23.30;79.30;;;;;;5060752;28;20657;-64
2023/07/08 11:09:25;;;;;;;3.07;2.80;;;23.30;79.10;;;;;;5065038;28;20483;-61
2023/07/08 11:11:55;;;;;;;4.50;4.10;;;23.30;79.10;;;;;;5067014;28;20459;-61
2023/07/08 11:14:28;;;;;;;3.47;3.17;;;23.20;78.90;;;;;;5065706;28;20924;-65
2023/07/08 11:17:04;;;;;;;3.43;3.13;;;23.20;78.90;;;;;;5069082;28;20863;-67
2023/07/08 11:19:36;;;;;;;5.37;3.90;;;23.30;79.00;;;;;;5070037;28;21318;-65
2023/07/08 11:22:10;;;;;;;4.50;3.40;;;23.30;78.90;;;;;;5069232;28;20460;-61
2023/07/08 11:24:43;;;;;;;3.23;2.80;;;23.20;78.90;;;;;;5070737;28;20970;-60
2023/07/08 11:27:19;;;;;;;3.70;3.40;;;23.20;78.80;;;;;;5070685;28;20452;-64
2023/07/08 11:29:49;;;;;;;3.50;2.83;;;23.30;79.00;;;;;;5068273;28;20479;-60
2023/07/08 11:32:19;;;;;;;3.83;3.53;;;23.30;79.00;;;;;;5059507;28;20487;-60
2023/07/08 11:34:49;;;;;;;4.37;3.33;;;23.30;79.00;;;;;;5066814;28;20488;-63
2023/07/08 11:37:18;;;;;;;3.97;3.63;;;23.30;79.20;;;;;;5066676;28;20786;-62
2023/07/08 11:39:47;;;;;;;4.90;4.13;;;23.30;79.30;;;;;;5058218;28;20552;-62
2023/07/08 11:42:19;;;;;;;4.90;4.20;;;23.30;79.50;;;;;;5054911;28;20453;-61
2023/07/08 11:44:51;;;;;;;10.43;4.00;;;23.30;79.60;;;;;;5056811;28;20480;-62
2023/07/08 11:47:22;;;;;;;4.73;3.77;;;23.30;79.80;;;;;;5055341;28;20521;-56
2023/07/08 11:49:50;;;;;;;4.60;3.70;;;23.30;80.00;;;;;;5065422;28;20494;-61
2023/07/08 11:52:19;;;;;;;3.60;3.30;;;23.30;80.00;;;;;;5066379;28;20463;-62
2023/07/08 11:54:55;;;;;;;3.60;3.30;;;23.40;80.40;;;;;;5063952;28;20492;-64
2023/07/08 11:57:29;;;;;;;4.00;2.83;;;23.40;80.60;;;;;;5065182;28;20995;-72
2023/07/08 12:00:17;;;;;;;4.33;3.93;;;23.40;80.70;;;;;;5069421;28;20804;-59
2023/07/08 12:02:56;;;;;;;5.50;3.80;;;23.40;80.70;;;;;;5070854;28;20440;-64
2023/07/08 12:05:34;;;;;;;4.33;3.73;;;23.40;81.10;;;;;;5066214;28;20456;-61
2023/07/08 12:08:02;;;;;;;3.90;3.60;;;23.40;81.30;;;;;;5072199;28;20460;-61
2023/07/08 12:10:35;;;;;;;4.57;4.17;;;23.40;81.40;;;;;;5068129;28;20485;-63
2023/07/08 12:13:03;;;;;;;3.70;3.40;;;23.40;81.60;;;;;;5064217;28;20484;-59
2023/07/08 12:15:31;;;;;;;5.23;3.83;;;23.40;81.30;;;;;;5062632;28;21039;-62
2023/07/08 12:18:02;;;;;;;4.00;3.60;;;23.40;81.60;;;;;;5067096;28;20465;-58
2023/07/08 12:20:31;;;;;;;4.37;3.97;;;23.50;81.60;;;;;;5061592;28;20567;-63
2023/07/08 12:22:58;;;;;;;4.37;3.97;;;23.50;81.50;;;;;;5060529;28;20456;-59
2023/07/08 12:25:29;;;;;;;6.40;3.50;;;23.50;81.60;;;;;;5065611;28;20456;-69
2023/07/08 12:27:58;;;;;;;3.80;3.40;;;23.50;81.60;;;;;;5070012;28;20461;-67
2023/07/08 12:30:26;;;;;;;7.37;5.17;;;23.60;81.70;;;;;;5058868;28;20562;-64
2023/07/08 12:32:55;;;;;;;5.27;3.53;;;23.60;81.70;;;;;;5064061;28;20464;-62
2023/07/08 12:35:25;;;;;;;5.07;4.40;;;23.60;82.40;;;;;;5059163;28;20483;-58
2023/07/08 12:37:55;;;;;;;3.90;3.60;;;23.60;81.60;;;;;;5059979;28;20998;-59
2023/07/08 12:40:23;;;;;;;3.80;3.50;;;23.70;81.60;;;;;;5061077;28;20507;-62
2023/07/08 12:42:50;;;;;;;3.97;3.57;;;23.70;81.60;;;;;;5058417;28;21020;-63
2023/07/08 12:45:21;;;;;;;4.37;3.97;;;23.70;81.50;;;;;;5058846;28;20896;-56
2023/07/08 12:47:48;;;;;;;4.03;3.67;;;23.70;81.40;;;;;;5056431;28;21346;-57
2023/07/08 12:50:15;;;;;;;4.03;3.67;;;23.80;81.20;;;;;;5060630;28;20567;-59
2023/07/08 12:52:45;;;;;;;3.77;3.47;;;23.80;81.10;;;;;;5066368;28;21439;-58
2023/07/08 12:55:12;;;;;;;6.90;3.87;;;23.80;80.80;;;;;;5068609;28;20466;-58
2023/07/08 12:57:43;;;;;;;4.90;3.83;;;23.80;80.70;;;;;;5069915;28;20824;-56